sensor_id;sensor_type;location;lat;lon;timestamp;pressure;altitude;pressure_sealevel;temperature;humidity
57232;BME280;43488;46.934;8.276;2023-04-15T00:00:57;95519.13;;;7.36;71.35
57232;BME280;43488;46.934;8.276;2023-04-15T00:03:25;95526.72;;;7.44;70.30
57232;BME280;43488;46.934;8.276;2023-04-15T00:05:54;95520.47;;;7.45;71.27
57232;BME280;43488;46.934;8.276;2023-04-15T00:08:23;95515.41;;;7.50;72.17
57232;BME280;43488;46.934;8.276;2023-04-15T00:10:50;95518.66;;;7.46;69.32
57232;BME280;43488;46.934;8.276;2023-04-15T00:13:21;95522.06;;;7.46;72.06
57232;BME280;43488;46.934;8.276;2023-04-15T00:15:49;95525.88;;;7.50;72.91
57232;BME280;43488;46.934;8.276;2023-04-15T00:18:16;95526.31;;;7.40;72.73
57232;BME280;43488;46.934;8.276;2023-04-15T00:20:44;95527.19;;;7.34;73.86
57232;BME280;43488;46.934;8.276;2023-04-15T00:23:11;95524.59;;;7.28;75.20
57232;BME280;43488;46.934;8.276;2023-04-15T00:25:39;95526.59;;;7.32;73.47
57232;BME280;43488;46.934;8.276;2023-04-15T00:28:06;95527.66;;;7.25;74.48
57232;BME280;43488;46.934;8.276;2023-04-15T00:30:34;95520.59;;;7.25;73.27
57232;BME280;43488;46.934;8.276;2023-04-15T00:33:02;95524.78;;;7.33;72.89
57232;BME280;43488;46.934;8.276;2023-04-15T00:35:30;95519.09;;;7.43;72.56
57232;BME280;43488;46.934;8.276;2023-04-15T00:38:00;95517.63;;;7.47;71.93
57232;BME280;43488;46.934;8.276;2023-04-15T00:40:28;95528.31;;;7.45;74.50
57232;BME280;43488;46.934;8.276;2023-04-15T00:42:56;95519.66;;;7.45;72.03
57232;BME280;43488;46.934;8.276;2023-04-15T00:45:24;95529.50;;;7.49;70.93
57232;BME280;43488;46.934;8.276;2023-04-15T00:47:52;95527.09;;;7.48;71.83
57232;BME280;43488;46.934;8.276;2023-04-15T00:50:20;95523.84;;;7.52;72.22
57232;BME280;43488;46.934;8.276;2023-04-15T00:52:47;95532.09;;;7.56;72.63
57232;BME280;43488;46.934;8.276;2023-04-15T00:55:15;95525.88;;;7.50;74.02
57232;BME280;43488;46.934;8.276;2023-04-15T00:57:42;95534.34;;;7.52;74.68
57232;BME280;43488;46.934;8.276;2023-04-15T01:00:11;95523.53;;;7.42;74.51
57232;BME280;43488;46.934;8.276;2023-04-15T01:02:38;95522.28;;;7.45;74.75
57232;BME280;43488;46.934;8.276;2023-04-15T01:05:06;95526.69;;;7.51;74.22
57232;BME280;43488;46.934;8.276;2023-04-15T01:07:34;95530.69;;;7.53;73.27
57232;BME280;43488;46.934;8.276;2023-04-15T01:10:04;95524.06;;;7.51;71.12
57232;BME280;43488;46.934;8.276;2023-04-15T01:12:32;95527.84;;;7.55;71.16
57232;BME280;43488;46.934;8.276;2023-04-15T01:15:01;95522.19;;;7.58;71.66
57232;BME280;43488;46.934;8.276;2023-04-15T01:17:28;95526.22;;;7.60;71.85
57232;BME280;43488;46.934;8.276;2023-04-15T01:19:58;95529.84;;;7.59;73.57
57232;BME280;43488;46.934;8.276;2023-04-15T01:22:26;95524.66;;;7.53;75.02
57232;BME280;43488;46.934;8.276;2023-04-15T01:25:04;95529.09;;;7.52;76.09
57232;BME280;43488;46.934;8.276;2023-04-15T01:27:33;95529.91;;;7.53;75.19
57232;BME280;43488;46.934;8.276;2023-04-15T01:30:01;95525.25;;;7.55;74.15
57232;BME280;43488;46.934;8.276;2023-04-15T01:32:31;95528.91;;;7.47;75.91
57232;BME280;43488;46.934;8.276;2023-04-15T01:34:58;95524.66;;;7.53;75.93
57232;BME280;43488;46.934;8.276;2023-04-15T01:37:25;95530.69;;;7.53;73.58
57232;BME280;43488;46.934;8.276;2023-04-15T01:39:53;95530.72;;;7.47;75.00
57232;BME280;43488;46.934;8.276;2023-04-15T01:42:21;95528.28;;;7.52;74.96
57232;BME280;43488;46.934;8.276;2023-04-15T01:44:48;95526.63;;;7.57;74.33
57232;BME280;43488;46.934;8.276;2023-04-15T01:47:16;95532.84;;;7.63;74.42
57232;BME280;43488;46.934;8.276;2023-04-15T01:49:43;95529.00;;;7.65;72.59
57232;BME280;43488;46.934;8.276;2023-04-15T01:52:11;95537.25;;;7.69;70.79
57232;BME280;43488;46.934;8.276;2023-04-15T01:54:38;95534.63;;;7.69;71.87
57232;BME280;43488;46.934;8.276;2023-04-15T01:57:05;95536.31;;;7.57;74.40
57232;BME280;43488;46.934;8.276;2023-04-15T01:59:33;95533.69;;;7.57;75.33
57232;BME280;43488;46.934;8.276;2023-04-15T02:02:00;95532.63;;;7.64;73.96
57232;BME280;43488;46.934;8.276;2023-04-15T02:04:28;95539.69;;;7.64;73.87
57232;BME280;43488;46.934;8.276;2023-04-15T02:06:55;95539.88;;;7.69;75.01
57232;BME280;43488;46.934;8.276;2023-04-15T02:09:22;95540.22;;;7.73;76.37
57232;BME280;43488;46.934;8.276;2023-04-15T02:11:51;95542.84;;;7.73;76.58
57232;BME280;43488;46.934;8.276;2023-04-15T02:14:20;95534.44;;;7.64;77.88
57232;BME280;43488;46.934;8.276;2023-04-15T02:16:47;95538.13;;;7.56;77.43
57232;BME280;43488;46.934;8.276;2023-04-15T02:19:14;95541.97;;;7.54;77.06
57232;BME280;43488;46.934;8.276;2023-04-15T02:21:41;95548.59;;;7.56;77.64
57232;BME280;43488;46.934;8.276;2023-04-15T02:24:09;95539.72;;;7.57;75.71
57232;BME280;43488;46.934;8.276;2023-04-15T02:26:38;95551.00;;;7.58;75.65
57232;BME280;43488;46.934;8.276;2023-04-15T02:29:06;95546.38;;;7.60;75.50
57232;BME280;43488;46.934;8.276;2023-04-15T02:31:33;95542.34;;;7.57;74.13
57232;BME280;43488;46.934;8.276;2023-04-15T02:34:03;95545.19;;;7.56;73.65
57232;BME280;43488;46.934;8.276;2023-04-15T02:36:31;95543.53;;;7.61;73.02
57232;BME280;43488;46.934;8.276;2023-04-15T02:39:01;95536.38;;;7.50;77.09
57232;BME280;43488;46.934;8.276;2023-04-15T02:41:28;95539.13;;;7.55;77.44
57232;BME280;43488;46.934;8.276;2023-04-15T02:43:56;95544.41;;;7.49;78.63
57232;BME280;43488;46.934;8.276;2023-04-15T02:46:23;95538.16;;;7.50;79.34
57232;BME280;43488;46.934;8.276;2023-04-15T02:48:50;95536.56;;;7.49;79.46
57232;BME280;43488;46.934;8.276;2023-04-15T02:51:21;95547.22;;;7.54;78.18
57232;BME280;43488;46.934;8.276;2023-04-15T02:53:49;95540.63;;;7.45;78.90
57232;BME280;43488;46.934;8.276;2023-04-15T02:56:16;95535.59;;;7.43;80.87
57232;BME280;43488;46.934;8.276;2023-04-15T02:58:45;95540.06;;;7.36;82.33
57232;BME280;43488;46.934;8.276;2023-04-15T03:01:12;95532.00;;;7.37;83.80
57232;BME280;43488;46.934;8.276;2023-04-15T03:03:39;95541.28;;;7.33;83.07
57232;BME280;43488;46.934;8.276;2023-04-15T03:06:07;95530.38;;;7.36;82.93
57232;BME280;43488;46.934;8.276;2023-04-15T03:08:35;95531.41;;;7.35;81.44
57232;BME280;43488;46.934;8.276;2023-04-15T03:11:05;95534.41;;;7.39;80.68
57232;BME280;43488;46.934;8.276;2023-04-15T03:13:34;95528.78;;;7.35;81.06
57232;BME280;43488;46.934;8.276;2023-04-15T03:16:01;95525.38;;;7.35;78.97
57232;BME280;43488;46.934;8.276;2023-04-15T03:18:30;95521.53;;;7.37;78.86
57232;BME280;43488;46.934;8.276;2023-04-15T03:20:57;95522.75;;;7.35;80.13
57232;BME280;43488;46.934;8.276;2023-04-15T03:23:25;95526.31;;;7.40;79.46
57232;BME280;43488;46.934;8.276;2023-04-15T03:25:53;95521.72;;;7.36;80.71
57232;BME280;43488;46.934;8.276;2023-04-15T03:28:25;95518.31;;;7.35;82.38
57232;BME280;43488;46.934;8.276;2023-04-15T03:30:52;95513.13;;;7.29;82.71
57232;BME280;43488;46.934;8.276;2023-04-15T03:33:19;95510.53;;;7.22;82.65
57232;BME280;43488;46.934;8.276;2023-04-15T03:35:47;95508.34;;;7.19;82.15
57232;BME280;43488;46.934;8.276;2023-04-15T03:38:14;95504.03;;;7.31;82.37
57232;BME280;43488;46.934;8.276;2023-04-15T03:40:42;95506.47;;;7.33;83.00
57232;BME280;43488;46.934;8.276;2023-04-15T03:43:11;95506.59;;;7.38;83.71
57232;BME280;43488;46.934;8.276;2023-04-15T03:45:38;95513.44;;;7.39;83.10
57232;BME280;43488;46.934;8.276;2023-04-15T03:48:06;95509.00;;;7.39;81.97
57232;BME280;43488;46.934;8.276;2023-04-15T03:50:33;95508.59;;;7.43;83.15
57232;BME280;43488;46.934;8.276;2023-04-15T03:53:01;95515.66;;;7.42;83.05
57232;BME280;43488;46.934;8.276;2023-04-15T03:55:28;95515.84;;;7.40;82.70
57232;BME280;43488;46.934;8.276;2023-04-15T03:57:55;95518.06;;;7.44;81.84
57232;BME280;43488;46.934;8.276;2023-04-15T04:00:22;95514.81;;;7.48;81.00
57232;BME280;43488;46.934;8.276;2023-04-15T04:02:49;95514.19;;;7.53;79.91
57232;BME280;43488;46.934;8.276;2023-04-15T04:05:17;95519.41;;;7.53;79.23
57232;BME280;43488;46.934;8.276;2023-04-15T04:07:44;95526.69;;;7.51;79.28
57232;BME280;43488;46.934;8.276;2023-04-15T04:10:12;95520.66;;;7.50;81.41
57232;BME280;43488;46.934;8.276;2023-04-15T04:12:43;95519.81;;;7.50;81.72
57232;BME280;43488;46.934;8.276;2023-04-15T04:15:11;95532.34;;;7.48;81.63
57232;BME280;43488;46.934;8.276;2023-04-15T04:17:38;95525.50;;;7.47;82.00
57232;BME280;43488;46.934;8.276;2023-04-15T04:20:07;95533.94;;;7.49;81.55
57232;BME280;43488;46.934;8.276;2023-04-15T04:22:40;95534.16;;;7.47;80.84
57232;BME280;43488;46.934;8.276;2023-04-15T04:25:08;95532.34;;;7.48;79.12
57232;BME280;43488;46.934;8.276;2023-04-15T04:27:38;95530.91;;;7.52;79.10
57232;BME280;43488;46.934;8.276;2023-04-15T04:30:06;95534.16;;;7.47;80.00
57232;BME280;43488;46.934;8.276;2023-04-15T04:32:34;95543.03;;;7.46;81.92
57232;BME280;43488;46.934;8.276;2023-04-15T04:35:03;95542.44;;;7.44;83.04
57232;BME280;43488;46.934;8.276;2023-04-15T04:37:30;95527.53;;;7.45;83.27
57232;BME280;43488;46.934;8.276;2023-04-15T04:39:57;95537.19;;;7.44;83.01
57232;BME280;43488;46.934;8.276;2023-04-15T04:42:25;95543.44;;;7.43;83.79
57232;BME280;43488;46.934;8.276;2023-04-15T04:44:52;95544.06;;;7.38;86.75
57232;BME280;43488;46.934;8.276;2023-04-15T04:47:19;95549.38;;;7.32;88.11
57232;BME280;43488;46.934;8.276;2023-04-15T04:49:46;95543.50;;;7.30;87.90
57232;BME280;43488;46.934;8.276;2023-04-15T04:52:14;95546.94;;;7.30;87.72
57232;BME280;43488;46.934;8.276;2023-04-15T04:54:42;95548.59;;;7.25;87.57
57232;BME280;43488;46.934;8.276;2023-04-15T04:57:09;95550.00;;;7.21;88.01
57232;BME280;43488;46.934;8.276;2023-04-15T04:59:38;95544.16;;;7.25;87.47
57232;BME280;43488;46.934;8.276;2023-04-15T05:02:06;95557.63;;;7.29;87.66
57232;BME280;43488;46.934;8.276;2023-04-15T05:04:33;95543.13;;;7.26;88.86
57232;BME280;43488;46.934;8.276;2023-04-15T05:07:01;95553.03;;;7.24;89.28
57232;BME280;43488;46.934;8.276;2023-04-15T05:09:29;95548.63;;;7.18;89.96
57232;BME280;43488;46.934;8.276;2023-04-15T05:11:58;95546.19;;;7.23;90.58
57232;BME280;43488;46.934;8.276;2023-04-15T05:14:26;95540.75;;;7.25;90.16
57232;BME280;43488;46.934;8.276;2023-04-15T05:16:53;95555.44;;;7.26;91.39
57232;BME280;43488;46.934;8.276;2023-04-15T05:19:20;95546.34;;;7.28;91.59
57232;BME280;43488;46.934;8.276;2023-04-15T05:21:47;95549.72;;;7.35;90.95
57232;BME280;43488;46.934;8.276;2023-04-15T05:24:15;95552.94;;;7.37;90.61
57232;BME280;43488;46.934;8.276;2023-04-15T05:26:42;95555.78;;;7.36;90.59
57232;BME280;43488;46.934;8.276;2023-04-15T05:29:10;95555.56;;;7.37;91.47
57232;BME280;43488;46.934;8.276;2023-04-15T05:31:37;95547.91;;;7.36;92.15
57232;BME280;43488;46.934;8.276;2023-04-15T05:34:07;95561.78;;;7.43;92.44
57232;BME280;43488;46.934;8.276;2023-04-15T05:36:34;95562.41;;;7.38;93.54
57232;BME280;43488;46.934;8.276;2023-04-15T05:39:02;95566.44;;;7.41;94.21
57232;BME280;43488;46.934;8.276;2023-04-15T05:41:30;95567.19;;;7.48;94.32
57232;BME280;43488;46.934;8.276;2023-04-15T05:43:58;95563.75;;;7.48;94.52
57232;BME280;43488;46.934;8.276;2023-04-15T05:46:25;95573.44;;;7.47;95.00
57232;BME280;43488;46.934;8.276;2023-04-15T05:48:53;95574.22;;;7.48;95.32
57232;BME280;43488;46.934;8.276;2023-04-15T05:51:20;95576.81;;;7.54;94.96
57232;BME280;43488;46.934;8.276;2023-04-15T05:53:47;95587.09;;;7.56;95.86
57232;BME280;43488;46.934;8.276;2023-04-15T05:56:15;95582.44;;;7.58;95.20
57232;BME280;43488;46.934;8.276;2023-04-15T05:58:42;95583.84;;;7.60;94.29
57232;BME280;43488;46.934;8.276;2023-04-15T06:01:09;95586.84;;;7.64;95.07
57232;BME280;43488;46.934;8.276;2023-04-15T06:03:37;95590.84;;;7.66;94.05
57232;BME280;43488;46.934;8.276;2023-04-15T06:06:04;95589.22;;;7.72;92.88
57232;BME280;43488;46.934;8.276;2023-04-15T06:08:32;95585.75;;;7.78;92.46
57232;BME280;43488;46.934;8.276;2023-04-15T06:10:59;95599.22;;;7.82;93.51
57232;BME280;43488;46.934;8.276;2023-04-15T06:13:26;95591.59;;;7.74;94.81
57232;BME280;43488;46.934;8.276;2023-04-15T06:15:54;95594.00;;;7.75;96.44
57232;BME280;43488;46.934;8.276;2023-04-15T06:18:21;95589.22;;;7.72;97.14
57232;BME280;43488;46.934;8.276;2023-04-15T06:20:48;95594.06;;;7.68;97.04
57232;BME280;43488;46.934;8.276;2023-04-15T06:23:16;95589.47;;;7.64;97.45
57232;BME280;43488;46.934;8.276;2023-04-15T06:25:43;95592.84;;;7.71;97.88
57232;BME280;43488;46.934;8.276;2023-04-15T06:28:11;95586.56;;;7.79;97.69
57232;BME280;43488;46.934;8.276;2023-04-15T06:30:39;95586.59;;;7.72;96.75
57232;BME280;43488;46.934;8.276;2023-04-15T06:33:06;95590.78;;;7.80;96.82
57232;BME280;43488;46.934;8.276;2023-04-15T06:35:33;95585.50;;;7.86;95.96
57232;BME280;43488;46.934;8.276;2023-04-15T06:38:01;95588.47;;;7.90;95.14
57232;BME280;43488;46.934;8.276;2023-04-15T06:40:28;95591.47;;;7.93;94.84
57232;BME280;43488;46.934;8.276;2023-04-15T06:42:55;95591.88;;;7.97;93.67
57232;BME280;43488;46.934;8.276;2023-04-15T06:45:23;95589.03;;;7.98;94.74
57232;BME280;43488;46.934;8.276;2023-04-15T06:47:50;95588.81;;;8.00;95.42
57232;BME280;43488;46.934;8.276;2023-04-15T06:50:17;95585.38;;;7.99;94.75
57232;BME280;43488;46.934;8.276;2023-04-15T06:52:45;95587.84;;;7.94;94.29
57232;BME280;43488;46.934;8.276;2023-04-15T06:55:12;95587.84;;;7.94;93.41
57232;BME280;43488;46.934;8.276;2023-04-15T06:57:40;95583.56;;;8.00;93.95
57232;BME280;43488;46.934;8.276;2023-04-15T07:00:09;95583.38;;;7.95;95.30
57232;BME280;43488;46.934;8.276;2023-04-15T07:02:38;95589.66;;;7.94;95.60
57232;BME280;43488;46.934;8.276;2023-04-15T07:05:07;95586.44;;;7.92;97.09
57232;BME280;43488;46.934;8.276;2023-04-15T07:07:37;95588.84;;;7.93;98.20
57232;BME280;43488;46.934;8.276;2023-04-15T07:10:05;95586.22;;;7.93;98.20
57232;BME280;43488;46.934;8.276;2023-04-15T07:12:32;95585.59;;;7.98;98.18
57232;BME280;43488;46.934;8.276;2023-04-15T07:15:01;95582.81;;;7.93;97.31
57232;BME280;43488;46.934;8.276;2023-04-15T07:17:31;95574.31;;;7.97;97.58
57232;BME280;43488;46.934;8.276;2023-04-15T07:19:59;95579.34;;;7.99;97.70
57232;BME280;43488;46.934;8.276;2023-04-15T07:22:28;95581.75;;;8.01;97.51
57232;BME280;43488;46.934;8.276;2023-04-15T07:24:55;95587.34;;;8.04;98.59
57232;BME280;43488;46.934;8.276;2023-04-15T07:27:22;95584.00;;;7.97;97.21
57232;BME280;43488;46.934;8.276;2023-04-15T07:29:50;95582.09;;;8.04;96.66
57232;BME280;43488;46.934;8.276;2023-04-15T07:32:19;95581.75;;;8.01;95.98
57232;BME280;43488;46.934;8.276;2023-04-15T07:34:47;95584.81;;;7.97;94.07
57232;BME280;43488;46.934;8.276;2023-04-15T07:37:15;95589.38;;;8.02;93.76
57232;BME280;43488;46.934;8.276;2023-04-15T07:39:43;95583.78;;;7.98;92.63
57232;BME280;43488;46.934;8.276;2023-04-15T07:42:10;95581.13;;;8.05;90.29
57232;BME280;43488;46.934;8.276;2023-04-15T07:44:38;95578.69;;;8.04;87.82
57232;BME280;43488;46.934;8.276;2023-04-15T07:47:06;95580.63;;;8.15;88.78
57232;BME280;43488;46.934;8.276;2023-04-15T07:49:33;95581.75;;;8.25;90.32
57232;BME280;43488;46.934;8.276;2023-04-15T07:52:00;95581.31;;;8.35;88.30
57232;BME280;43488;46.934;8.276;2023-04-15T07:54:28;95576.06;;;8.35;85.76
57232;BME280;43488;46.934;8.276;2023-04-15T07:56:58;95577.16;;;8.46;84.90
57232;BME280;43488;46.934;8.276;2023-04-15T07:59:25;95578.44;;;8.37;84.95
57232;BME280;43488;46.934;8.276;2023-04-15T08:01:56;95578.31;;;8.50;85.20
57232;BME280;43488;46.934;8.276;2023-04-15T08:04:23;95575.91;;;8.48;84.13
57232;BME280;43488;46.934;8.276;2023-04-15T08:06:51;95576.13;;;8.47;83.42
57232;BME280;43488;46.934;8.276;2023-04-15T08:09:18;95581.34;;;8.53;82.34
57232;BME280;43488;46.934;8.276;2023-04-15T08:11:48;95577.75;;;8.48;81.75
57232;BME280;43488;46.934;8.276;2023-04-15T08:14:15;95577.84;;;8.60;82.76
57232;BME280;43488;46.934;8.276;2023-04-15T08:16:44;95586.06;;;8.63;83.24
57232;BME280;43488;46.934;8.276;2023-04-15T08:19:12;95582.72;;;8.56;83.42
57232;BME280;43488;46.934;8.276;2023-04-15T08:21:39;95589.56;;;8.57;82.01
57232;BME280;43488;46.934;8.276;2023-04-15T08:24:08;95583.22;;;8.65;84.37
57232;BME280;43488;46.934;8.276;2023-04-15T08:26:36;95590.25;;;8.71;84.60
57232;BME280;43488;46.934;8.276;2023-04-15T08:29:03;95593.00;;;8.76;83.97
57232;BME280;43488;46.934;8.276;2023-04-15T08:31:30;95593.09;;;8.69;83.56
57232;BME280;43488;46.934;8.276;2023-04-15T08:33:58;95587.53;;;8.77;85.72
57232;BME280;43488;46.934;8.276;2023-04-15T08:36:25;95588.84;;;8.87;85.93
57232;BME280;43488;46.934;8.276;2023-04-15T08:38:53;95589.97;;;8.79;81.10
57232;BME280;43488;46.934;8.276;2023-04-15T08:41:22;95580.41;;;8.84;81.54
57232;BME280;43488;46.934;8.276;2023-04-15T08:43:58;95590.66;;;8.86;83.72
57232;BME280;43488;46.934;8.276;2023-04-15T08:46:27;95597.91;;;8.91;83.02
57232;BME280;43488;46.934;8.276;2023-04-15T08:48:57;95582.22;;;9.02;80.75
57232;BME280;43488;46.934;8.276;2023-04-15T08:51:24;95576.66;;;9.10;81.50
57232;BME280;43488;46.934;8.276;2023-04-15T08:53:53;95588.84;;;9.23;80.05
57232;BME280;43488;46.934;8.276;2023-04-15T08:56:24;95584.97;;;9.26;77.87
57232;BME280;43488;46.934;8.276;2023-04-15T08:58:55;95588.09;;;9.34;78.92
57232;BME280;43488;46.934;8.276;2023-04-15T09:01:22;95583.88;;;9.33;79.56
57232;BME280;43488;46.934;8.276;2023-04-15T09:03:50;95582.63;;;9.36;78.64
57232;BME280;43488;46.934;8.276;2023-04-15T09:06:20;95576.28;;;9.44;77.12
57232;BME280;43488;46.934;8.276;2023-04-15T09:08:52;95578.78;;;9.50;78.57
57232;BME280;43488;46.934;8.276;2023-04-15T09:11:21;95584.03;;;9.50;79.23
57232;BME280;43488;46.934;8.276;2023-04-15T09:13:49;95585.56;;;9.58;77.29
57232;BME280;43488;46.934;8.276;2023-04-15T09:16:16;95587.63;;;9.56;75.53
57232;BME280;43488;46.934;8.276;2023-04-15T09:18:44;95575.44;;;9.61;75.94
57232;BME280;43488;46.934;8.276;2023-04-15T09:21:15;95588.59;;;9.43;76.38
57232;BME280;43488;46.934;8.276;2023-04-15T09:24:00;95593.97;;;9.48;78.44
57232;BME280;43488;46.934;8.276;2023-04-15T09:26:36;95590.22;;;9.44;79.38
57232;BME280;43488;46.934;8.276;2023-04-15T09:29:10;95600.16;;;9.24;79.38
57232;BME280;43488;46.934;8.276;2023-04-15T09:31:42;95600.44;;;9.34;80.70
57232;BME280;43488;46.934;8.276;2023-04-15T09:34:10;95596.56;;;9.36;80.15
57232;BME280;43488;46.934;8.276;2023-04-15T09:36:56;95595.28;;;9.57;78.75
57232;BME280;43488;46.934;8.276;2023-04-15T09:39:23;95602.59;;;9.55;78.95
57232;BME280;43488;46.934;8.276;2023-04-15T09:42:07;95604.75;;;9.58;80.53
57232;BME280;43488;46.934;8.276;2023-04-15T09:44:34;95605.34;;;9.60;79.38
57232;BME280;43488;46.934;8.276;2023-04-15T09:47:02;95597.41;;;9.79;77.90
57232;BME280;43488;46.934;8.276;2023-04-15T09:49:29;95598.22;;;9.79;79.17
57232;BME280;43488;46.934;8.276;2023-04-15T09:52:01;95602.53;;;9.74;78.94
57232;BME280;43488;46.934;8.276;2023-04-15T09:54:37;95604.53;;;9.90;80.48
57232;BME280;43488;46.934;8.276;2023-04-15T09:57:08;95598.88;;;10.16;80.99
57232;BME280;43488;46.934;8.276;2023-04-15T09:59:39;95596.84;;;10.30;81.13
57232;BME280;43488;46.934;8.276;2023-04-15T10:02:06;95599.91;;;10.15;77.69
57232;BME280;43488;46.934;8.276;2023-04-15T10:04:35;95607.34;;;10.18;78.59
57232;BME280;43488;46.934;8.276;2023-04-15T10:07:05;95608.81;;;10.14;78.83
57232;BME280;43488;46.934;8.276;2023-04-15T10:09:35;95613.34;;;10.25;77.49
57232;BME280;43488;46.934;8.276;2023-04-15T10:12:04;95613.97;;;10.21;75.37
57232;BME280;43488;46.934;8.276;2023-04-15T10:14:34;95608.88;;;10.26;75.89
57232;BME280;43488;46.934;8.276;2023-04-15T10:17:05;95617.72;;;10.13;77.42
57232;BME280;43488;46.934;8.276;2023-04-15T10:19:36;95617.19;;;10.23;75.92
57232;BME280;43488;46.934;8.276;2023-04-15T10:22:05;95621.22;;;10.25;75.88
57232;BME280;43488;46.934;8.276;2023-04-15T10:24:34;95612.03;;;10.16;75.54
57232;BME280;43488;46.934;8.276;2023-04-15T10:27:05;95624.72;;;10.19;75.78
57232;BME280;43488;46.934;8.276;2023-04-15T10:29:33;95626.88;;;10.11;74.15
57232;BME280;43488;46.934;8.276;2023-04-15T10:32:01;95626.22;;;10.15;75.25
57232;BME280;43488;46.934;8.276;2023-04-15T10:34:29;95629.50;;;10.11;78.12
57232;BME280;43488;46.934;8.276;2023-04-15T10:37:03;95642.16;;;10.02;78.46
57232;BME280;43488;46.934;8.276;2023-04-15T10:39:41;95639.84;;;9.94;79.07
57232;BME280;43488;46.934;8.276;2023-04-15T10:42:15;95641.34;;;9.90;80.43
57232;BME280;43488;46.934;8.276;2023-04-15T10:44:51;95650.56;;;9.81;79.12
57232;BME280;43488;46.934;8.276;2023-04-15T10:47:22;95644.41;;;9.87;79.11
57232;BME280;43488;46.934;8.276;2023-04-15T10:49:55;95644.13;;;9.77;78.68
57232;BME280;43488;46.934;8.276;2023-04-15T10:52:26;95646.75;;;9.77;79.47
57232;BME280;43488;46.934;8.276;2023-04-15T10:55:19;95654.16;;;9.68;79.20
57232;BME280;43488;46.934;8.276;2023-04-15T10:57:58;95657.72;;;9.74;78.90
57232;BME280;43488;46.934;8.276;2023-04-15T11:00:31;95668.53;;;9.65;80.26
57232;BME280;43488;46.934;8.276;2023-04-15T11:03:08;95666.44;;;9.56;79.77
57232;BME280;43488;46.934;8.276;2023-04-15T11:05:56;95669.06;;;9.56;81.27
57232;BME280;43488;46.934;8.276;2023-04-15T11:08:59;95670.09;;;9.55;80.70
57232;BME280;43488;46.934;8.276;2023-04-15T11:12:07;95678.06;;;9.48;79.15
57232;BME280;43488;46.934;8.276;2023-04-15T11:14:45;95675.28;;;9.61;80.34
57232;BME280;43488;46.934;8.276;2023-04-15T11:17:13;95684.53;;;9.64;80.97
57232;BME280;43488;46.934;8.276;2023-04-15T11:19:41;95692.19;;;9.65;79.83
57232;BME280;43488;46.934;8.276;2023-04-15T11:22:10;95696.06;;;9.63;79.89
57232;BME280;43488;46.934;8.276;2023-04-15T11:24:47;95690.25;;;9.61;80.55
57232;BME280;43488;46.934;8.276;2023-04-15T11:27:25;95689.72;;;9.71;80.84
57232;BME280;43488;46.934;8.276;2023-04-15T11:29:53;95689.13;;;9.68;80.87
57232;BME280;43488;46.934;8.276;2023-04-15T11:32:21;95693.72;;;9.73;82.02
57232;BME280;43488;46.934;8.276;2023-04-15T11:34:48;95702.06;;;9.70;81.48
57232;BME280;43488;46.934;8.276;2023-04-15T11:37:15;95704.31;;;9.66;82.16
57232;BME280;43488;46.934;8.276;2023-04-15T11:39:43;95704.47;;;9.53;82.96
57232;BME280;43488;46.934;8.276;2023-04-15T11:42:17;95705.34;;;9.29;86.11
57232;BME280;43488;46.934;8.276;2023-04-15T11:44:45;95713.09;;;9.42;86.20
57232;BME280;43488;46.934;8.276;2023-04-15T11:47:23;95716.00;;;9.52;88.39
57232;BME280;43488;46.934;8.276;2023-04-15T11:49:50;95719.34;;;9.23;91.05
57232;BME280;43488;46.934;8.276;2023-04-15T11:52:18;95724.31;;;9.31;90.74
57232;BME280;43488;46.934;8.276;2023-04-15T11:54:45;95720.59;;;9.38;92.31
57232;BME280;43488;46.934;8.276;2023-04-15T11:57:13;95732.47;;;9.41;94.63
57232;BME280;43488;46.934;8.276;2023-04-15T11:59:43;95727.91;;;9.36;96.48
57232;BME280;43488;46.934;8.276;2023-04-15T12:02:12;95737.38;;;9.19;95.69
57232;BME280;43488;46.934;8.276;2023-04-15T12:04:40;95746.59;;;9.03;96.88
57232;BME280;43488;46.934;8.276;2023-04-15T12:07:07;95746.22;;;9.00;97.33
57232;BME280;43488;46.934;8.276;2023-04-15T12:09:38;95750.28;;;8.96;97.22
57232;BME280;43488;46.934;8.276;2023-04-15T12:12:06;95761.13;;;9.06;96.13
57232;BME280;43488;46.934;8.276;2023-04-15T12:14:34;95755.41;;;8.91;95.07
57232;BME280;43488;46.934;8.276;2023-04-15T12:17:04;95761.72;;;9.08;95.61
57232;BME280;43488;46.934;8.276;2023-04-15T12:19:40;95762.78;;;9.00;98.07
57232;BME280;43488;46.934;8.276;2023-04-15T12:22:10;95765.59;;;9.05;98.36
57232;BME280;43488;46.934;8.276;2023-04-15T12:24:39;95772.75;;;9.17;98.22
57232;BME280;43488;46.934;8.276;2023-04-15T12:27:12;95777.25;;;9.09;97.72
57232;BME280;43488;46.934;8.276;2023-04-15T12:29:41;95777.81;;;9.11;96.07
57232;BME280;43488;46.934;8.276;2023-04-15T12:32:13;95781.44;;;8.92;97.91
57232;BME280;43488;46.934;8.276;2023-04-15T12:34:50;95783.91;;;8.87;98.66
57232;BME280;43488;46.934;8.276;2023-04-15T12:37:18;95783.63;;;8.95;96.43
57232;BME280;43488;46.934;8.276;2023-04-15T12:39:48;95792.25;;;9.02;97.72
57232;BME280;43488;46.934;8.276;2023-04-15T12:42:17;95793.50;;;9.00;98.58
57232;BME280;43488;46.934;8.276;2023-04-15T12:44:45;95800.56;;;8.99;100.00
57232;BME280;43488;46.934;8.276;2023-04-15T12:47:13;95802.47;;;8.86;100.00
57232;BME280;43488;46.934;8.276;2023-04-15T12:49:41;95802.38;;;8.99;97.02
57232;BME280;43488;46.934;8.276;2023-04-15T12:52:09;95822.63;;;8.92;97.04
57232;BME280;43488;46.934;8.276;2023-04-15T12:54:38;95815.34;;;8.94;100.00
57232;BME280;43488;46.934;8.276;2023-04-15T12:57:06;95822.34;;;8.75;100.00
57232;BME280;43488;46.934;8.276;2023-04-15T12:59:34;95836.31;;;8.69;100.00
57232;BME280;43488;46.934;8.276;2023-04-15T13:02:02;95832.72;;;8.63;100.00
57232;BME280;43488;46.934;8.276;2023-04-15T13:04:29;95838.06;;;8.75;100.00
57232;BME280;43488;46.934;8.276;2023-04-15T13:06:57;95830.84;;;8.70;99.11
57232;BME280;43488;46.934;8.276;2023-04-15T13:09:24;95838.50;;;8.72;100.00
57232;BME280;43488;46.934;8.276;2023-04-15T13:11:51;95842.66;;;8.54;100.00
57232;BME280;43488;46.934;8.276;2023-04-15T13:14:20;95848.06;;;8.60;100.00
57232;BME280;43488;46.934;8.276;2023-04-15T13:16:47;95851.88;;;8.64;100.00
57232;BME280;43488;46.934;8.276;2023-04-15T13:19:14;95864.22;;;8.57;100.00